Stations météo

réclame
Mon MeteoGroup
Diepenbeek, Belgique (6477): Température de l'air & dewpoint: 12.10.2018 18:00:00 - 18.10.2018 18:00:00 (CEST)Diepenbeek, Belgique (6477): Vitesse du vent & gusts: 12.10.2018 18:00:00 - 18.10.2018 18:00:00 (CEST)Diepenbeek, Belgique (6477): Direction du vent: 12.10.2018 18:00:00 - 18.10.2018 18:00:00 (CEST)Diepenbeek, Belgique (6477): reduced air pressure: 12.10.2018 18:00:00 - 18.10.2018 18:00:00 (CEST)Diepenbeek, Belgique (6477): Ensoleillement: 12.10.2018 18:00:00 - 18.10.2018 18:00:00 (CEST)Diepenbeek, Belgique (6477): Quantités de précipitations: 12.10.2018 18:00:00 - 18.10.2018 18:00:00 (CEST)
Date & Time tt [°C] td [°C] ff [km/h] ff [knt] fx [km/h] fx [knt] dd ppp [hPa] sd [min] rr [mm]
18.10.2018 18:00:00 15,3 11,8 15 8 25 14 NNE 1023,9 26 0,0
18.10.2018 17:00:00 15,8 11,8 16 8 25 14 NNE 1023,9 3 0,0
18.10.2018 16:00:00 16,5 11,6 15 8 28 15 N 1024,2 19 0,0
18.10.2018 15:00:00 17,8 10,3 11 6 25 14 NE 1024,0 - -
18.10.2018 14:00:00 16,1 11,1 14 8 - - NNE 1024,3 - -
18.10.2018 13:00:00 16,0 11,8 14 8 22 12 NNE 1024,5 - -
18.10.2018 12:00:00 15,0 11,6 11 6 25 14 NNE 1024,6 - -
18.10.2018 11:00:00 13,9 11,5 12 7 25 14 NNE 1024,5 0 0,0
18.10.2018 10:00:00 12,7 11,5 11 6 19 10 N 1024,4 0 0,0
18.10.2018 09:00:00 12,3 11,4 5 3 12 7 N 1023,8 0 0,0
18.10.2018 08:00:00 13,3 11,4 7 4 16 9 NNE 1023,5 0 0,0
18.10.2018 07:00:00 13,8 12,3 7 4 16 9 NNE 1023,1 0 0,0
18.10.2018 06:00:00 14,0 12,3 6 3 13 7 N 1022,8 0 0,0
18.10.2018 05:00:00 14,1 12,4 6 3 14 8 N 1022,7 0 0,0
18.10.2018 04:00:00 13,4 12,7 4 2 7 4 N 1022,6 0 0,0
18.10.2018 03:00:00 13,0 12,8 4 2 7 4 NNW 1022,5 0 0,0
18.10.2018 02:00:00 11,7 11,7 0 0 5 3 N 1022,4 0 0,0
18.10.2018 01:00:00 11,1 11,1 4 2 5 3 NNW 1022,2 0 0,0
18.10.2018 00:00:00 11,0 11,0 4 2 6 4 NW 1022,3 0 0,0
17.10.2018 23:00:00 10,7 10,6 4 2 6 4 NW 1021,9 0 0,0
17.10.2018 22:00:00 11,8 11,5 0 0 5 3 N 1021,3 0 0,0
17.10.2018 21:00:00 13,4 12,4 4 2 8 5 N 1020,8 0 0,0
17.10.2018 20:00:00 15,0 12,9 4 2 7 4 N 1020,2 0 0,0
17.10.2018 19:00:00 17,9 13,4 5 3 14 8 N 1019,5 13 0,0
17.10.2018 18:00:00 19,6 13,8 8 4 14 7 NW 1019,1 60 0,0
17.10.2018 17:00:00 20,9 13,9 8 4 14 8 WNW 1019,0 60 0,0
17.10.2018 16:00:00 21,5 13,6 8 4 10 6 W 1018,9 60 0,0
17.10.2018 15:00:00 20,6 13,2 4 2 8 5 NNE 1019,1 60 0,0
17.10.2018 14:00:00 20,0 13,4 4 2 9 5 SSE 1019,5 60 0,0
17.10.2018 13:00:00 18,0 13,5 5 3 9 5 WNW 1019,9 60 0,0
17.10.2018 12:00:00 15,9 13,3 4 2 11 6 WSW 1020,3 60 0,0
17.10.2018 11:00:00 12,7 11,5 4 2 - - W 1020,3 - -
17.10.2018 10:00:00 9,8 9,5 0 0 5 3 N 1020,1 53 0,0
17.10.2018 09:00:00 7,4 7,4 0 0 3 2 N 1019,8 0 0,0
17.10.2018 08:00:00 8,2 8,2 4 2 - - SE 1019,3 - -
17.10.2018 07:00:00 8,4 8,3 4 2 4 2 ESE 1019,4 - -
17.10.2018 06:00:00 8,5 8,5 0 0 6 3 N 1019,3 0 0,0
17.10.2018 05:00:00 8,7 8,6 4 2 - - SE 1019,1 - -
17.10.2018 04:00:00 9,3 9,3 4 2 5 3 WNW 1018,9 0 0,0
17.10.2018 03:00:00 9,4 9,3 4 2 7 4 ESE 1019,0 - -
17.10.2018 02:00:00 9,2 9,2 4 2 5 3 ENE 1018,9 0 0,0
17.10.2018 01:00:00 9,8 9,8 0 0 4 2 N 1019,2 0 0,0
17.10.2018 00:00:00 10,2 10,0 4 2 5 3 ENE 1019,4 0 0,0
16.10.2018 23:00:00 12,0 12,0 4 2 - - SSE 1019,3 - -
16.10.2018 22:00:00 12,5 11,9 0 0 4 2 N 1019,2 0 0,0
16.10.2018 21:00:00 13,8 12,3 4 2 4 2 SE 1019,0 0 0,0
16.10.2018 20:00:00 15,7 13,1 0 0 - - N 1018,7 - -
16.10.2018 19:00:00 18,7 13,4 0 0 4 2 N 1018,4 - -
16.10.2018 18:00:00 22,2 12,5 4 2 10 5 ENE 1018,1 42 0,0
16.10.2018 17:00:00 24,2 11,7 7 4 - - ESE 1018,1 - -
16.10.2018 16:00:00 25,1 9,5 6 4 12 7 SSE 1018,1 54 0,0
16.10.2018 15:00:00 24,6 11,0 4 2 7 4 SSE 1018,3 - -
16.10.2018 14:00:00 23,6 11,8 4 2 8 4 SSE 1018,6 36 0,0
16.10.2018 13:00:00 22,3 11,5 4 2 9 5 ESE 1018,8 60 0,0
16.10.2018 12:00:00 20,4 11,7 4 2 7 4 SSE 1018,9 60 0,0
16.10.2018 11:00:00 17,9 11,7 4 2 - - ESE 1019,0 - -
16.10.2018 10:00:00 13,2 11,3 4 2 7 4 SE 1019,1 - -
16.10.2018 09:00:00 8,5 8,3 4 2 6 3 ESE 1018,9 22 0,0
16.10.2018 08:00:00 7,2 7,2 4 2 7 4 SSE 1018,6 0 0,0
16.10.2018 07:00:00 8,9 8,7 5 3 23 12 WNW 1018,3 0 0,0
16.10.2018 06:00:00 7,7 7,7 4 2 5 3 ESE 1017,8 0 0,0
16.10.2018 05:00:00 7,6 7,6 4 2 5 3 E 1017,5 0 0,0
16.10.2018 04:00:00 7,5 7,5 4 2 5 3 ESE 1017,6 0 0,0
16.10.2018 03:00:00 8,2 8,2 4 2 3 2 ESE 1017,4 0 0,0
16.10.2018 02:00:00 9,0 8,8 0 0 4 2 N 1016,8 0 0,0
16.10.2018 01:00:00 9,1 9,0 4 2 4 2 SSE 1016,5 0 0,0
16.10.2018 00:00:00 9,8 9,7 0 0 3 2 N 1016,3 0 0,0
15.10.2018 23:00:00 10,9 10,3 4 2 4 2 SSE 1016,0 0 0,0
15.10.2018 22:00:00 11,9 10,7 0 0 4 2 N 1015,4 0 0,0
15.10.2018 21:00:00 13,4 11,2 0 0 1 1 N 1014,9 0 0,0
15.10.2018 20:00:00 15,3 11,8 4 2 4 2 SE 1014,6 0 0,0
15.10.2018 19:00:00 18,9 11,1 0 0 12 6 N 1014,4 22 0,0
15.10.2018 18:00:00 22,7 10,5 8 4 23 12 SSW 1013,5 60 0,0
15.10.2018 17:00:00 24,0 10,4 10 5 22 12 SSW 1013,1 60 0,0
15.10.2018 16:00:00 24,3 10,3 13 7 22 12 SSW 1012,8 60 0,0
15.10.2018 15:00:00 24,2 11,6 8 5 18 10 SSW 1012,7 60 0,0
15.10.2018 14:00:00 23,4 11,6 14 8 24 13 SSW 1012,8 60 0,0
15.10.2018 13:00:00 23,7 10,8 17 9 25 14 SSW 1012,9 55 0,0
15.10.2018 12:00:00 21,7 11,0 11 6 21 11 SSW 1012,7 60 0,0
15.10.2018 11:00:00 20,3 10,6 10 5 21 11 S 1012,3 59 0,0
15.10.2018 10:00:00 19,9 10,7 11 6 16 9 S 1011,9 16 0,0
15.10.2018 09:00:00 17,8 10,2 9 5 15 8 S 1011,3 0 0,0
15.10.2018 08:00:00 17,5 9,6 7 4 13 7 S 1010,9 0 0,0
15.10.2018 07:00:00 16,8 9,1 8 4 12 6 SSE 1010,4 0 0,0
15.10.2018 06:00:00 17,2 8,9 8 5 13 7 SSE 1010,1 0 0,0
15.10.2018 05:00:00 17,9 8,7 9 5 18 10 S 1009,9 0 0,0
15.10.2018 04:00:00 18,4 9,1 9 5 17 9 S 1010,0 0 0,0
15.10.2018 03:00:00 15,0 9,8 7 4 11 6 SSE 1010,0 0 0,0
15.10.2018 02:00:00 13,3 8,8 7 4 11 6 SSE 1010,0 0 0,0
15.10.2018 01:00:00 12,8 8,8 8 5 12 6 SE 1009,8 0 0,0
15.10.2018 00:00:00 12,8 9,1 6 3 9 5 ESE 1009,4 0 0,0
14.10.2018 23:00:00 13,9 9,1 4 2 9 5 SSE 1009,2 0 0,0
14.10.2018 22:00:00 14,3 9,2 5 3 8 5 ESE 1008,8 0 0,0
14.10.2018 21:00:00 15,5 9,3 4 2 12 6 SE 1008,5 0 0,0
14.10.2018 20:00:00 19,3 7,5 7 4 18 10 SE 1008,3 0 0,0
14.10.2018 19:00:00 21,9 8,2 8 5 14 8 S 1008,1 4 0,0
14.10.2018 18:00:00 23,4 9,1 9 5 24 13 S 1007,6 26 0,0
14.10.2018 17:00:00 24,8 8,5 15 8 36 20 S 1007,6 60 0,0
14.10.2018 16:00:00 25,8 9,2 19 11 41 22 SSW 1007,6 60 0,0
14.10.2018 15:00:00 25,7 9,8 20 11 45 24 SSW 1007,7 60 0,0
14.10.2018 14:00:00 25,3 9,1 22 12 35 19 SSW 1008,2 60 0,0
14.10.2018 13:00:00 23,7 9,5 18 10 37 20 S 1009,0 60 0,0
14.10.2018 12:00:00 22,2 11,4 19 10 36 20 S 1009,2 60 0,0
14.10.2018 11:00:00 20,4 11,9 20 11 30 16 S 1009,7 60 0,0
14.10.2018 10:00:00 18,4 12,4 11 6 20 11 S 1010,0 60 0,0
14.10.2018 09:00:00 16,0 11,9 9 5 18 10 SSE 1010,2 34 0,0
14.10.2018 08:00:00 14,3 11,3 7 4 12 7 SSE 1010,1 0 0,0
14.10.2018 07:00:00 11,9 10,7 6 3 11 6 SE 1010,4 0 0,0
14.10.2018 06:00:00 13,3 11,0 8 4 12 7 SE 1010,6 0 0,0
14.10.2018 05:00:00 14,2 11,4 10 6 12 7 ESE 1011,0 0 0,0
14.10.2018 04:00:00 14,8 11,9 9 5 14 8 SE 1011,6 0 0,0
14.10.2018 03:00:00 12,2 10,8 8 4 9 5 SE 1012,5 0 0,0
14.10.2018 02:00:00 12,2 11,7 4 2 6 3 SE 1013,1 0 0,0
14.10.2018 01:00:00 12,2 11,5 4 2 6 3 SE 1013,8 0 0,0
14.10.2018 00:00:00 12,7 11,5 4 2 7 4 E 1013,9 0 0,0
13.10.2018 23:00:00 14,3 12,3 0 0 4 2 N 1014,1 0 0,0
13.10.2018 22:00:00 15,7 12,5 4 2 8 5 SE 1014,0 0 0,0
13.10.2018 21:00:00 16,9 12,5 7 4 8 5 SE 1014,1 0 0,0
13.10.2018 20:00:00 19,6 12,5 7 4 10 5 E 1014,5 0 0,0
13.10.2018 19:00:00 22,3 12,7 8 4 14 8 SE 1014,5 15 0,0
13.10.2018 18:00:00 25,2 13,2 11 6 21 11 S 1014,7 60 0,0
13.10.2018 17:00:00 25,8 13,9 11 6 26 14 S 1015,1 60 0,0
13.10.2018 16:00:00 26,3 14,0 16 9 28 15 SSW 1016,0 60 0,0
13.10.2018 15:00:00 26,5 13,8 18 10 29 16 S 1016,7 60 0,0
13.10.2018 14:00:00 25,6 14,7 15 8 23 13 S 1017,5 60 0,0
13.10.2018 13:00:00 24,7 15,2 11 6 26 14 SSE 1018,4 60 0,0
13.10.2018 12:00:00 23,0 14,8 13 7 22 12 SSE 1018,8 60 0,0
13.10.2018 11:00:00 21,4 14,6 11 6 20 11 SSE 1019,4 60 0,0
13.10.2018 10:00:00 19,2 14,2 11 6 17 9 SSE 1019,5 60 0,0
13.10.2018 09:00:00 16,4 13,5 7 4 13 7 SE 1019,5 34 0,0
13.10.2018 08:00:00 15,8 13,1 7 4 10 5 SSE 1019,5 0 0,0
13.10.2018 07:00:00 16,6 13,6 7 4 14 7 SE 1019,6 0 0,0
13.10.2018 06:00:00 16,0 13,7 7 4 11 6 SSE 1020,0 0 0,0
13.10.2018 05:00:00 14,9 13,6 0 0 5 3 N 1020,3 0 0,0
13.10.2018 04:00:00 15,1 13,0 5 3 10 5 ESE 1020,3 0 0,0
13.10.2018 03:00:00 17,2 13,4 8 5 12 7 SE 1019,9 0 0,0
13.10.2018 02:00:00 18,0 13,5 7 4 13 7 S 1019,9 0 0,0
13.10.2018 01:00:00 18,3 14,0 8 5 17 9 SSE 1019,8 0 0,0
13.10.2018 00:00:00 18,5 14,5 11 6 15 8 SSE 1020,1 0 0,0
12.10.2018 23:00:00 18,5 14,6 6 3 11 6 S 1020,5 0 0,0
12.10.2018 22:00:00 19,4 14,8 8 5 13 7 SSE 1020,2 0 0,0
12.10.2018 21:00:00 20,1 15,1 9 5 16 9 SSE 1019,9 0 0,0
12.10.2018 20:00:00 20,5 15,2 7 4 14 8 SSE 1019,7 0 0,0
12.10.2018 19:00:00 21,7 15,3 7 4 18 10 S 1019,3 0 0,0
12.10.2018 18:00:00 23,4 15,4 13 7 28 15 SSW 1019,0 30 0,0

tt = Température de l'air
td = dewpoint
ff = Vitesse du vent
fx = gusts
dd = Direction du vent
ppp = reduced air pressure
sd = Ensoleillement
rr = Quantités de précipitations

stations d'obs. à proximité